Time;durP1;ratioP1;P1;durP2;ratioP2;P2;SDS_P1;SDS_P2;PMS_P1;PMS_P2;Temp;Humidity;BMP_temperature;BMP_pressure;BME280_temperature;BME280_humidity;BME280_pressure;Samples;Min_cycle;Max_cycle;Signal;HPM_P1;HPM_P2
2023/09/07 00:01:06;;;;;;;2.60;2.20;;;26.40;93.90;;;;;;5035776;28;20180;-85
2023/09/07 00:03:34;;;;;;;2.73;2.53;;;26.40;93.90;;;;;;5036451;28;20295;-85
2023/09/07 00:06:00;;;;;;;2.90;2.60;;;26.40;94.00;;;;;;5036373;28;20188;-85
2023/09/07 00:08:29;;;;;;;2.87;2.57;;;26.40;93.90;;;;;;5036407;28;20169;-85
2023/09/07 00:11:09;;;;;;;2.90;2.60;;;26.40;93.90;;;;;;5036508;28;20168;-85
2023/09/07 00:13:35;;;;;;;3.17;2.50;;;26.40;94.00;;;;;;5036100;28;20195;-85
2023/09/07 00:16:02;;;;;;;2.47;2.27;;;26.30;94.00;;;;;;5035339;28;20695;-85
2023/09/07 00:18:29;;;;;;;3.60;2.87;;;26.30;94.00;;;;;;5034788;28;20173;-85
2023/09/07 00:21:07;;;;;;;2.70;2.50;;;26.30;94.00;;;;;;5034533;28;20215;-85
2023/09/07 00:23:33;;;;;;;3.00;2.70;;;26.30;94.00;;;;;;5036883;28;20208;-85
2023/09/07 00:26:02;;;;;;;4.50;2.80;;;26.30;94.30;;;;;;5038883;28;20260;-85
2023/09/07 00:28:30;;;;;;;2.70;2.47;;;26.30;94.00;;;;;;5039875;28;20208;-85
2023/09/07 00:30:59;;;;;;;3.37;2.90;;;26.30;94.10;;;;;;5039364;28;20647;-85
2023/09/07 00:33:24;;;;;;;2.90;2.60;;;26.30;94.10;;;;;;5039422;28;20594;-86
2023/09/07 00:35:50;;;;;;;2.90;2.70;;;26.30;94.10;;;;;;5039807;28;20196;-86
2023/09/07 00:38:16;;;;;;;3.40;2.60;;;26.30;94.10;;;;;;5039642;28;20235;-85
2023/09/07 00:40:46;;;;;;;3.07;2.77;;;26.30;94.10;;;;;;5039500;28;20169;-85
2023/09/07 00:43:14;;;;;;;3.60;2.83;;;26.30;94.10;;;;;;5039581;28;20209;-85
2023/09/07 00:45:40;;;;;;;2.80;2.40;;;26.20;94.10;;;;;;5039304;28;20177;-85
2023/09/07 00:48:07;;;;;;;2.87;2.57;;;26.20;94.50;;;;;;5039723;28;20500;-85
2023/09/07 00:50:47;;;;;;;3.07;2.73;;;26.20;94.20;;;;;;5037977;28;20177;-85
2023/09/07 00:53:14;;;;;;;2.90;2.57;;;26.20;94.20;;;;;;5038385;28;20176;-85
2023/09/07 00:55:39;;;;;;;4.03;2.77;;;26.20;94.10;;;;;;5039666;28;20247;-85
2023/09/07 00:58:08;;;;;;;3.20;2.70;;;26.20;94.20;;;;;;5036793;28;20197;-85
2023/09/07 01:00:36;;;;;;;3.00;2.67;;;26.20;94.20;;;;;;5038345;28;20191;-85
2023/09/07 01:03:04;;;;;;;3.40;2.73;;;26.20;94.20;;;;;;5039055;28;20243;-86
2023/09/07 01:05:40;;;;;;;3.43;2.70;;;26.20;94.20;;;;;;5039068;28;20181;-85
2023/09/07 01:08:28;;;;;;;2.60;2.40;;;26.10;94.20;;;;;;5038558;28;20551;-85
2023/09/07 01:10:57;;;;;;;3.00;2.70;;;26.10;94.20;;;;;;5039537;28;20188;-85
2023/09/07 01:13:26;;;;;;;3.00;2.70;;;26.10;94.30;;;;;;5039522;28;20179;-85
2023/09/07 01:15:52;;;;;;;2.97;2.60;;;26.10;94.30;;;;;;5039693;28;20272;-85
2023/09/07 01:18:19;;;;;;;3.00;2.43;;;26.10;94.30;;;;;;5040038;28;20169;-85
2023/09/07 01:20:46;;;;;;;3.00;2.70;;;26.00;94.30;;;;;;5039904;28;20460;-85
2023/09/07 01:23:15;;;;;;;2.90;2.67;;;26.00;94.30;;;;;;5038581;28;20570;-85
2023/09/07 01:26:02;;;;;;;3.10;2.70;;;26.00;94.30;;;;;;5037919;28;20165;-85
2023/09/07 01:28:31;;;;;;;3.30;2.70;;;26.00;94.30;;;;;;5039220;28;20176;-85
2023/09/07 01:30:57;;;;;;;3.20;2.53;;;26.00;94.30;;;;;;5039016;28;20260;-85
2023/09/07 01:33:23;;;;;;;2.83;2.50;;;26.00;94.20;;;;;;5038996;28;21566;-85
2023/09/07 01:35:50;;;;;;;3.30;2.60;;;26.00;94.30;;;;;;5038905;28;20184;-85
2023/09/07 01:38:16;;;;;;;4.10;2.73;;;26.00;94.30;;;;;;5039661;28;20546;-85
2023/09/07 01:40:41;;;;;;;3.00;2.70;;;26.00;94.30;;;;;;5039753;28;20188;-85
2023/09/07 01:43:10;;;;;;;2.53;2.33;;;25.90;94.30;;;;;;5039048;28;20586;-85
2023/09/07 01:45:36;;;;;;;3.20;2.90;;;25.90;94.30;;;;;;5038826;28;20239;-85
2023/09/07 01:48:03;;;;;;;4.27;2.47;;;25.90;94.30;;;;;;5038280;28;20188;-85
2023/09/07 01:50:28;;;;;;;2.77;2.40;;;25.90;94.30;;;;;;5039416;28;20165;-85
2023/09/07 01:52:54;;;;;;;3.00;2.70;;;25.90;94.30;;;;;;5038569;28;20180;-85
2023/09/07 01:55:21;;;;;;;2.87;2.60;;;25.90;94.40;;;;;;5038116;28;20654;-85
2023/09/07 01:57:49;;;;;;;4.33;2.90;;;25.90;94.40;;;;;;5037273;28;20173;-85
2023/09/07 02:00:14;;;;;;;2.73;2.53;;;25.80;94.40;;;;;;5038356;28;20174;-85
2023/09/07 02:02:43;;;;;;;3.10;2.60;;;25.80;94.40;;;;;;5038396;28;20197;-85
2023/09/07 02:05:09;;;;;;;2.80;2.50;;;25.80;94.30;;;;;;5037722;28;20558;-85
2023/09/07 02:07:35;;;;;;;3.00;2.73;;;25.80;94.30;;;;;;5038443;28;20499;-86
2023/09/07 02:10:03;;;;;;;3.20;2.90;;;25.70;94.40;;;;;;5038433;28;20179;-86
2023/09/07 02:12:32;;;;;;;3.37;2.60;;;25.80;94.40;;;;;;5038721;28;20188;-86
2023/09/07 02:15:33;;;;;;;2.67;2.40;;;25.80;94.50;;;;;;5039521;28;20460;-86
2023/09/07 02:17:58;;;;;;;3.80;3.00;;;25.70;94.50;;;;;;5038168;28;20187;-86
2023/09/07 02:20:24;;;;;;;2.77;2.50;;;25.70;94.50;;;;;;5038512;28;20296;-86
2023/09/07 02:22:50;;;;;;;3.07;2.67;;;25.70;94.50;;;;;;5038395;28;20208;-86
2023/09/07 02:25:24;;;;;;;3.37;2.30;;;25.70;94.50;;;;;;5037564;28;20165;-85
2023/09/07 02:27:50;;;;;;;2.60;2.40;;;25.70;94.50;;;;;;5038250;28;20183;-85
2023/09/07 02:30:16;;;;;;;3.20;2.90;;;25.70;94.50;;;;;;5037931;28;21519;-85
2023/09/07 02:32:44;;;;;;;3.27;2.77;;;25.60;94.50;;;;;;5037027;28;20471;-86
2023/09/07 02:35:13;;;;;;;3.50;2.80;;;25.60;94.60;;;;;;5038164;28;20192;-86
2023/09/07 02:37:39;;;;;;;2.93;2.60;;;25.60;94.50;;;;;;5034136;28;20173;-86
2023/09/07 02:40:08;;;;;;;2.90;2.60;;;25.60;94.50;;;;;;5036860;28;20234;-86
2023/09/07 02:42:34;;;;;;;3.33;2.40;;;25.60;94.60;;;;;;5038290;28;20213;-86
2023/09/07 02:45:00;;;;;;;4.33;2.50;;;25.60;94.60;;;;;;5037384;28;20169;-86
2023/09/07 02:47:28;;;;;;;3.10;2.80;;;25.60;94.50;;;;;;5036457;28;20173;-85
2023/09/07 02:49:54;;;;;;;3.67;2.70;;;25.60;94.50;;;;;;5037322;28;20169;-86
2023/09/07 02:52:25;;;;;;;3.07;2.77;;;25.60;94.50;;;;;;5037617;28;20184;-86
2023/09/07 02:54:54;;;;;;;2.93;2.70;;;25.60;94.50;;;;;;5038213;28;20177;-86
2023/09/07 02:57:19;;;;;;;3.00;2.53;;;25.60;94.50;;;;;;5037578;28;20179;-86
2023/09/07 02:59:45;;;;;;;2.63;2.43;;;25.60;94.50;;;;;;5037686;28;20248;-86
2023/09/07 03:02:29;;;;;;;3.70;2.40;;;25.50;94.50;;;;;;5036870;28;20172;-86
2023/09/07 03:04:58;;;;;;;3.27;2.80;;;25.50;94.50;;;;;;5036511;28;20184;-86
2023/09/07 03:07:32;;;;;;;3.60;2.60;;;25.50;94.50;;;;;;5035896;28;20531;-86
2023/09/07 03:09:58;;;;;;;3.80;2.80;;;25.50;94.50;;;;;;5036770;28;20177;-86
2023/09/07 03:12:34;;;;;;;2.50;2.30;;;25.40;94.50;;;;;;5037549;28;20173;-86
2023/09/07 03:15:03;;;;;;;2.80;2.57;;;25.40;94.60;;;;;;5037299;28;20242;-86
2023/09/07 03:17:29;;;;;;;2.77;2.50;;;25.40;94.50;;;;;;5035747;28;20220;-86
2023/09/07 03:19:58;;;;;;;3.10;2.57;;;25.40;94.60;;;;;;5036888;28;20203;-86
2023/09/07 03:22:36;;;;;;;3.27;2.70;;;25.40;94.60;;;;;;5037697;28;20574;-86
2023/09/07 03:25:05;;;;;;;3.10;2.80;;;25.40;94.60;;;;;;5036916;28;20173;-86
2023/09/07 03:27:30;;;;;;;2.43;2.23;;;25.40;94.70;;;;;;5036488;28;20307;-86
2023/09/07 03:29:59;;;;;;;3.00;2.70;;;25.40;94.60;;;;;;5037458;28;20189;-86
2023/09/07 03:32:31;;;;;;;2.87;2.67;;;25.40;94.60;;;;;;5036407;28;20176;-86
2023/09/07 03:35:08;;;;;;;2.67;2.47;;;25.40;94.60;;;;;;5036838;28;20545;-86
2023/09/07 03:37:35;;;;;;;3.10;2.70;;;25.30;94.50;;;;;;5036585;28;20172;-86
2023/09/07 03:40:01;;;;;;;2.90;2.60;;;25.40;94.50;;;;;;5036579;28;20238;-86
2023/09/07 03:42:30;;;;;;;5.90;2.70;;;25.30;94.50;;;;;;5037074;28;20469;-86
2023/09/07 03:44:58;;;;;;;2.87;2.67;;;25.30;94.80;;;;;;5035996;28;20173;-86
2023/09/07 03:47:29;;;;;;;3.07;2.73;;;25.20;94.60;;;;;;5035723;28;20189;-86
2023/09/07 03:49:58;;;;;;;4.83;2.40;;;25.20;94.60;;;;;;5034585;28;20181;-86
2023/09/07 03:52:28;;;;;;;2.60;2.40;;;25.20;94.60;;;;;;5035645;28;20192;-86
2023/09/07 03:54:55;;;;;;;3.63;2.60;;;25.20;94.50;;;;;;5035725;28;20175;-86
2023/09/07 03:57:21;;;;;;;3.70;2.60;;;25.20;94.50;;;;;;5037216;28;20632;-86
2023/09/07 03:59:55;;;;;;;2.90;2.60;;;25.20;94.50;;;;;;5039837;28;20173;-86
2023/09/07 04:02:24;;;;;;;6.73;2.70;;;25.20;94.50;;;;;;5019808;28;20169;-86
2023/09/07 04:04:51;;;;;;;2.73;2.47;;;25.10;94.50;;;;;;5034865;28;20238;-86
2023/09/07 04:07:20;;;;;;;2.67;2.40;;;25.10;94.50;;;;;;5040758;28;20177;-86
2023/09/07 04:09:52;;;;;;;4.10;2.60;;;25.10;94.50;;;;;;5039857;28;20215;-86
2023/09/07 04:12:18;;;;;;;3.17;2.70;;;25.10;94.50;;;;;;5039682;28;20173;-86
2023/09/07 04:14:48;;;;;;;2.97;2.50;;;25.10;94.50;;;;;;5040033;28;20212;-86
2023/09/07 04:17:17;;;;;;;3.23;2.60;;;25.10;94.50;;;;;;5040308;28;20683;-86
2023/09/07 04:19:43;;;;;;;4.00;2.60;;;25.10;94.50;;;;;;5039029;28;20271;-86
2023/09/07 04:22:12;;;;;;;3.50;2.60;;;25.10;94.50;;;;;;5039480;28;20689;-86
2023/09/07 04:24:40;;;;;;;3.10;2.70;;;25.10;94.80;;;;;;5039661;28;20201;-86
2023/09/07 04:27:09;;;;;;;2.97;2.63;;;25.10;94.50;;;;;;5039306;28;20173;-86
2023/09/07 04:29:35;;;;;;;2.80;2.50;;;25.10;94.40;;;;;;5039253;28;20250;-86
2023/09/07 04:32:03;;;;;;;4.27;2.80;;;25.10;94.50;;;;;;5039048;28;20263;-86
2023/09/07 04:34:32;;;;;;;2.60;2.40;;;25.00;94.40;;;;;;5038475;28;20752;-86
2023/09/07 04:37:00;;;;;;;2.90;2.50;;;25.00;94.40;;;;;;5038223;28;20267;-86
2023/09/07 04:39:28;;;;;;;4.17;2.73;;;25.00;94.30;;;;;;5038387;28;20173;-86
2023/09/07 04:41:57;;;;;;;3.40;2.70;;;25.00;94.30;;;;;;5018266;28;20178;-86
2023/09/07 04:44:27;;;;;;;2.87;2.50;;;25.00;94.40;;;;;;5018817;28;20209;-86
2023/09/07 04:46:55;;;;;;;2.93;2.30;;;25.00;94.40;;;;;;5023257;28;20431;-86
2023/09/07 04:49:21;;;;;;;3.10;2.70;;;24.90;94.40;;;;;;5037991;28;20204;-86
2023/09/07 04:51:49;;;;;;;2.80;2.47;;;24.90;94.40;;;;;;5039026;28;20215;-86
2023/09/07 04:54:18;;;;;;;2.57;2.37;;;24.90;94.40;;;;;;5037471;28;20192;-86
2023/09/07 04:56:43;;;;;;;3.03;2.73;;;24.90;94.40;;;;;;5037658;28;20169;-86
2023/09/07 04:59:12;;;;;;;3.43;2.50;;;24.90;94.40;;;;;;5038023;28;20177;-86
2023/09/07 05:01:40;;;;;;;3.27;2.63;;;24.90;94.40;;;;;;5038205;28;20203;-87
2023/09/07 05:04:06;;;;;;;2.83;2.53;;;24.90;94.50;;;;;;5038095;28;20235;-87
2023/09/07 05:06:36;;;;;;;2.97;2.67;;;24.80;94.50;;;;;;5037534;28;20169;-87
2023/09/07 05:09:09;;;;;;;2.73;2.53;;;24.90;94.50;;;;;;5035821;28;20173;-87
2023/09/07 05:11:35;;;;;;;3.60;2.73;;;24.90;94.40;;;;;;5036736;28;20267;-87
2023/09/07 05:14:04;;;;;;;3.13;2.77;;;24.90;94.40;;;;;;5037205;28;20476;-87
2023/09/07 05:16:30;;;;;;;3.00;2.57;;;24.90;94.30;;;;;;5036153;28;20287;-87
2023/09/07 05:18:57;;;;;;;3.00;2.40;;;24.90;94.30;;;;;;5033988;28;20535;-87
2023/09/07 05:21:29;;;;;;;3.60;2.60;;;24.90;94.30;;;;;;5043112;28;20204;-87
2023/09/07 05:23:55;;;;;;;2.60;2.40;;;24.90;94.30;;;;;;5037168;28;20227;-86
2023/09/07 05:26:24;;;;;;;3.10;2.77;;;24.90;94.30;;;;;;5035161;28;20181;-86
2023/09/07 05:28:53;;;;;;;2.93;2.60;;;24.90;94.20;;;;;;5033079;28;20177;-86
2023/09/07 05:31:21;;;;;;;4.27;2.83;;;24.90;94.10;;;;;;5033743;28;20596;-86
2023/09/07 05:33:56;;;;;;;3.33;3.03;;;24.90;94.10;;;;;;5032907;28;20284;-86
2023/09/07 05:36:22;;;;;;;10.23;2.90;;;24.90;94.00;;;;;;5032745;28;20190;-86
2023/09/07 05:38:56;;;;;;;3.13;2.77;;;24.90;94.00;;;;;;5033105;28;20169;-87
2023/09/07 05:41:22;;;;;;;4.83;2.90;;;24.90;93.90;;;;;;5034302;28;20197;-87
2023/09/07 05:43:49;;;;;;;3.30;2.93;;;24.90;93.80;;;;;;5031317;28;20212;-87
2023/09/07 05:46:14;;;;;;;3.17;2.87;;;24.90;93.80;;;;;;5031428;28;20172;-87
2023/09/07 05:48:43;;;;;;;3.47;3.10;;;24.90;93.80;;;;;;5031864;28;20173;-86
2023/09/07 05:51:12;;;;;;;3.57;2.90;;;25.00;93.40;;;;;;5028616;28;20172;-87
2023/09/07 05:53:44;;;;;;;4.83;3.13;;;25.20;93.20;;;;;;5031333;28;20169;-87
2023/09/07 05:56:12;;;;;;;3.10;2.80;;;25.20;92.90;;;;;;5032139;28;20169;-86
2023/09/07 05:58:38;;;;;;;3.60;2.97;;;25.10;93.00;;;;;;5030279;28;20199;-87
2023/09/07 06:01:05;;;;;;;3.07;2.67;;;24.90;93.20;;;;;;5027646;28;20491;-87
2023/09/07 06:03:35;;;;;;;5.47;3.33;;;24.90;93.30;;;;;;5060517;28;20278;-87
2023/09/07 06:06:03;;;;;;;3.37;2.77;;;24.90;93.40;;;;;;5028733;28;20169;-87
2023/09/07 06:08:32;;;;;;;4.40;3.00;;;24.90;93.40;;;;;;5030358;28;20173;-87
2023/09/07 06:11:00;;;;;;;4.93;3.43;;;24.90;93.30;;;;;;5028182;28;20227;-87
2023/09/07 06:13:30;;;;;;;4.83;3.17;;;24.90;93.10;;;;;;5028050;28;20238;-87
2023/09/07 06:15:55;;;;;;;4.07;3.47;;;25.00;93.10;;;;;;5025637;28;20185;-87
2023/09/07 06:18:24;;;;;;;3.90;3.40;;;25.00;92.90;;;;;;5029134;28;20207;-87
2023/09/07 06:20:53;;;;;;;5.20;3.20;;;25.00;92.80;;;;;;5027668;28;20428;-87
2023/09/07 06:23:25;;;;;;;3.80;3.37;;;25.10;92.70;;;;;;5029112;28;20570;-87
2023/09/07 06:25:53;;;;;;;3.27;2.97;;;25.10;92.50;;;;;;5027112;28;20655;-87
2023/09/07 06:28:19;;;;;;;3.40;2.97;;;25.10;92.40;;;;;;5029923;28;20187;-87
2023/09/07 06:30:47;;;;;;;3.97;3.40;;;25.20;92.30;;;;;;5026109;28;20173;-87
2023/09/07 06:33:13;;;;;;;3.70;3.20;;;25.20;92.20;;;;;;5029922;28;20574;-87
2023/09/07 06:35:41;;;;;;;4.00;3.40;;;25.20;92.10;;;;;;5029672;28;20237;-87
2023/09/07 06:38:07;;;;;;;5.10;3.30;;;25.30;92.10;;;;;;5027700;28;20181;-87
2023/09/07 06:40:36;;;;;;;3.43;3.13;;;25.30;92.00;;;;;;5029040;28;20185;-87
2023/09/07 06:43:05;;;;;;;3.50;3.20;;;25.40;91.90;;;;;;5029509;28;20310;-87
2023/09/07 06:45:51;;;;;;;3.53;3.10;;;25.50;91.90;;;;;;5030570;28;20579;-87
2023/09/07 06:48:20;;;;;;;3.40;3.10;;;25.50;91.70;;;;;;5034171;28;20545;-87
2023/09/07 06:50:47;;;;;;;4.50;3.37;;;25.60;91.60;;;;;;5032727;28;20173;-87
2023/09/07 06:53:12;;;;;;;6.07;3.40;;;25.60;91.40;;;;;;5032845;28;20497;-86
2023/09/07 06:55:41;;;;;;;3.80;3.10;;;25.70;91.10;;;;;;5030662;28;20165;-87
2023/09/07 06:58:10;;;;;;;3.77;3.33;;;25.80;90.80;;;;;;5030508;28;20208;-86
2023/09/07 07:00:40;;;;;;;5.07;3.60;;;26.00;90.50;;;;;;5030085;28;20586;-87
2023/09/07 07:03:08;;;;;;;4.63;3.47;;;26.00;90.50;;;;;;5028417;28;20235;-87
2023/09/07 07:05:34;;;;;;;3.97;3.10;;;26.10;89.90;;;;;;5031726;28;20161;-86
2023/09/07 07:07:59;;;;;;;4.90;3.33;;;26.10;89.70;;;;;;5027051;28;20247;-87
2023/09/07 07:10:28;;;;;;;3.53;2.87;;;26.20;89.30;;;;;;5027062;28;20505;-87
2023/09/07 07:12:57;;;;;;;3.63;3.20;;;26.20;89.30;;;;;;5026590;28;20169;-87
2023/09/07 07:15:23;;;;;;;4.23;3.30;;;26.30;89.60;;;;;;5026513;28;20252;-87
2023/09/07 07:17:48;;;;;;;3.55;3.10;;;26.40;89.20;;;;;;5025585;28;20181;-87
2023/09/07 07:20:17;;;;;;;3.90;3.17;;;26.50;88.60;;;;;;5029969;28;20333;-87
2023/09/07 07:22:43;;;;;;;5.00;3.17;;;26.60;88.10;;;;;;5029437;28;20205;-86
2023/09/07 07:25:11;;;;;;;4.28;2.90;;;26.70;87.20;;;;;;5027989;28;20227;-86
2023/09/07 07:27:40;;;;;;;3.83;3.20;;;26.80;86.90;;;;;;5027927;28;20200;-86
2023/09/07 07:30:10;;;;;;;3.08;2.78;;;27.00;85.80;;;;;;5028138;28;20169;-86
2023/09/07 07:32:35;;;;;;;3.85;3.08;;;27.30;84.20;;;;;;5028997;28;20196;-86
2023/09/07 07:35:02;;;;;;;3.72;2.90;;;27.50;82.30;;;;;;5029027;28;20469;-86
2023/09/07 07:37:27;;;;;;;3.63;3.28;;;27.80;80.80;;;;;;5027987;28;20168;-86
2023/09/07 07:39:56;;;;;;;3.30;3.00;;;28.00;79.30;;;;;;5030562;28;20263;-86
2023/09/07 07:42:24;;;;;;;4.68;3.20;;;28.20;78.20;;;;;;5028292;28;20230;-86
2023/09/07 07:44:50;;;;;;;3.28;2.97;;;28.40;76.90;;;;;;5027117;28;20173;-86
2023/09/07 07:47:18;;;;;;;4.88;3.20;;;28.60;76.40;;;;;;5027281;28;20474;-85
2023/09/07 07:49:47;;;;;;;3.80;3.47;;;28.80;74.50;;;;;;5032283;28;20661;-86
2023/09/07 07:52:22;;;;;;;3.53;3.10;;;29.00;73.20;;;;;;5028093;28;20180;-85
2023/09/07 07:54:47;;;;;;;3.40;3.10;;;29.20;72.00;;;;;;5027445;28;20172;-85
2023/09/07 07:57:13;;;;;;;4.05;3.20;;;29.40;70.80;;;;;;5026841;28;20177;-85
2023/09/07 07:59:42;;;;;;;3.47;3.00;;;29.60;69.60;;;;;;5029574;28;20702;-86
2023/09/07 08:02:11;;;;;;;3.30;3.00;;;29.80;68.80;;;;;;5028663;28;20193;-86
2023/09/07 08:04:36;;;;;;;3.72;2.97;;;29.90;67.90;;;;;;5027780;28;20196;-86
2023/09/07 08:07:06;;;;;;;3.85;2.92;;;30.00;67.30;;;;;;5029761;28;20519;-86
2023/09/07 08:09:32;;;;;;;3.67;3.38;;;30.10;66.70;;;;;;5030132;28;20173;-85
2023/09/07 08:11:58;;;;;;;4.68;3.08;;;30.20;66.20;;;;;;5030299;28;20168;-85
2023/09/07 08:14:29;;;;;;;3.65;3.08;;;30.30;65.70;;;;;;5027726;28;20361;-85
2023/09/07 08:16:57;;;;;;;4.70;3.00;;;30.40;65.40;;;;;;5028837;28;20254;-85
2023/09/07 08:19:27;;;;;;;5.00;3.60;;;30.40;65.20;;;;;;5030185;28;20173;-85
2023/09/07 08:21:53;;;;;;;3.63;3.33;;;30.40;64.80;;;;;;5029197;28;20200;-85
2023/09/07 08:24:19;;;;;;;3.25;2.95;;;30.60;64.50;;;;;;5027970;28;20208;-85
2023/09/07 08:26:51;;;;;;;3.75;3.15;;;30.60;64.20;;;;;;5024742;28;20177;-86
2023/09/07 08:29:24;;;;;;;3.45;3.15;;;30.70;63.90;;;;;;5028037;28;20176;-85
2023/09/07 08:31:50;;;;;;;3.42;3.13;;;30.80;63.60;;;;;;5028134;28;20276;-85
2023/09/07 08:34:21;;;;;;;3.30;3.00;;;30.90;63.20;;;;;;5031032;28;20287;-85
2023/09/07 08:36:49;;;;;;;3.50;3.20;;;30.90;62.80;;;;;;5029823;28;20161;-86
2023/09/07 08:39:18;;;;;;;3.50;3.20;;;31.00;62.60;;;;;;5030456;28;20184;-85
2023/09/07 08:41:44;;;;;;;3.53;3.22;;;31.20;62.10;;;;;;5029702;28;20219;-85
2023/09/07 08:44:19;;;;;;;3.33;3.03;;;31.30;62.00;;;;;;5029686;28;20299;-85
2023/09/07 08:46:45;;;;;;;3.33;3.03;;;31.40;61.50;;;;;;5031806;28;20372;-85
2023/09/07 08:49:11;;;;;;;3.08;2.88;;;31.50;61.00;;;;;;5030240;28;20184;-85
2023/09/07 08:51:38;;;;;;;6.63;3.22;;;31.50;60.60;;;;;;5028695;28;20268;-85
2023/09/07 08:54:05;;;;;;;3.30;3.00;;;31.60;60.20;;;;;;5027781;28;20172;-85
2023/09/07 08:56:33;;;;;;;3.13;2.83;;;31.80;59.90;;;;;;5031527;28;20208;-85
2023/09/07 08:58:59;;;;;;;3.28;2.95;;;31.90;59.80;;;;;;5030957;28;20177;-85
2023/09/07 09:01:31;;;;;;;3.42;3.13;;;31.80;59.40;;;;;;5029705;28;20586;-85
2023/09/07 09:04:01;;;;;;;3.08;2.88;;;31.90;59.70;;;;;;5032415;28;20197;-86
2023/09/07 09:06:26;;;;;;;3.75;3.05;;;31.90;59.60;;;;;;5030558;28;20433;-86
2023/09/07 09:08:56;;;;;;;3.10;2.80;;;32.00;59.40;;;;;;5031237;28;20199;-86
2023/09/07 09:11:27;;;;;;;3.35;3.05;;;32.10;59.20;;;;;;5031362;28;20498;-85
2023/09/07 09:13:53;;;;;;;4.03;2.88;;;32.20;59.00;;;;;;5031090;28;20304;-85
2023/09/07 09:16:20;;;;;;;4.60;3.13;;;32.20;58.80;;;;;;5030714;28;20177;-85
2023/09/07 09:18:52;;;;;;;3.65;3.00;;;32.10;58.80;;;;;;5010638;28;20193;-85
2023/09/07 09:21:29;;;;;;;3.00;2.70;;;32.30;58.50;;;;;;5011423;28;20236;-85
2023/09/07 09:24:00;;;;;;;3.40;3.10;;;32.40;58.50;;;;;;5011583;28;20209;-85
2023/09/07 09:26:25;;;;;;;2.90;2.60;;;32.50;58.40;;;;;;5026451;28;20184;-85
2023/09/07 09:28:52;;;;;;;3.22;2.92;;;32.50;58.40;;;;;;5010294;28;20690;-85
2023/09/07 09:31:21;;;;;;;3.42;3.03;;;32.50;58.30;;;;;;5014824;28;20169;-85
2023/09/07 09:33:56;;;;;;;3.20;2.90;;;32.60;58.30;;;;;;5029435;28;20192;-85
2023/09/07 09:36:22;;;;;;;3.20;2.90;;;32.60;58.10;;;;;;5031247;28;20207;-85
2023/09/07 09:38:50;;;;;;;2.95;2.75;;;32.80;57.80;;;;;;5032005;28;20165;-85
2023/09/07 09:41:17;;;;;;;3.10;2.80;;;32.80;57.80;;;;;;5031114;28;20241;-85
2023/09/07 09:46:32;;;;;;;3.30;3.00;;;32.70;57.70;;;;;;5016611;28;20173;-85
2023/09/07 09:48:58;;;;;;;3.28;2.97;;;32.70;57.60;;;;;;5029008;28;20165;-85
2023/09/07 09:51:24;;;;;;;2.97;2.78;;;32.60;57.70;;;;;;5027988;28;20180;-84
2023/09/07 09:53:54;;;;;;;3.13;2.85;;;32.60;57.80;;;;;;5028871;28;20203;-85
2023/09/07 09:56:20;;;;;;;3.00;2.70;;;32.50;57.80;;;;;;5030161;28;20177;-85
2023/09/07 09:58:46;;;;;;;3.67;2.92;;;32.40;57.80;;;;;;5029371;28;20168;-85
2023/09/07 10:01:14;;;;;;;3.50;3.08;;;32.60;57.90;;;;;;5029032;28;20585;-85
2023/09/07 10:03:47;;;;;;;3.10;2.80;;;32.40;57.80;;;;;;5028964;28;20196;-85
2023/09/07 10:06:28;;;;;;;3.05;2.78;;;32.10;58.20;;;;;;5026953;28;20176;-85
2023/09/07 10:09:06;;;;;;;3.00;2.80;;;31.80;58.70;;;;;;5027474;28;20176;-85
2023/09/07 10:11:34;;;;;;;2.95;2.67;;;31.50;59.30;;;;;;5027649;28;20192;-84
2023/09/07 10:14:03;;;;;;;3.15;2.90;;;31.30;59.70;;;;;;5027718;28;20184;-84
2023/09/07 10:16:29;;;;;;;3.45;2.55;;;31.10;60.10;;;;;;5026043;28;20200;-85
2023/09/07 10:18:58;;;;;;;3.08;2.58;;;31.00;60.70;;;;;;5030310;28;20223;-85
2023/09/07 10:21:39;;;;;;;3.22;2.92;;;30.80;61.20;;;;;;5029268;28;20611;-85
2023/09/07 10:24:05;;;;;;;3.25;2.95;;;30.60;62.10;;;;;;5030698;28;20212;-85
2023/09/07 10:26:34;;;;;;;3.20;2.90;;;30.50;62.90;;;;;;5030256;28;20179;-85
2023/09/07 10:29:06;;;;;;;2.88;2.60;;;30.40;63.30;;;;;;5030454;28;20168;-85
2023/09/07 10:31:35;;;;;;;3.35;3.05;;;30.30;63.90;;;;;;5031728;28;20381;-85
2023/09/07 10:34:28;;;;;;;3.45;2.80;;;30.20;64.60;;;;;;5030974;28;20189;-85
2023/09/07 10:36:56;;;;;;;3.30;3.00;;;30.20;64.90;;;;;;5020780;28;20186;-84
2023/09/07 10:39:22;;;;;;;2.90;2.70;;;30.20;65.10;;;;;;5022524;28;20710;-85
2023/09/07 10:41:50;;;;;;;3.17;2.90;;;30.30;65.10;;;;;;5014415;28;20202;-85
2023/09/07 10:44:26;;;;;;;3.05;2.85;;;30.30;65.40;;;;;;5012641;28;20240;-85
2023/09/07 10:46:51;;;;;;;2.97;2.67;;;30.20;65.80;;;;;;5013026;28;20205;-84
2023/09/07 10:49:18;;;;;;;2.80;2.60;;;30.20;66.00;;;;;;5013869;28;20219;-84
2023/09/07 10:51:45;;;;;;;3.20;2.90;;;30.20;66.10;;;;;;5009004;28;20166;-84
2023/09/07 10:54:31;;;;;;;3.25;2.80;;;30.10;66.40;;;;;;5008707;28;20193;-84
2023/09/07 10:57:08;;;;;;;2.83;2.63;;;30.00;67.00;;;;;;5010288;28;20271;-84
2023/09/07 10:59:34;;;;;;;3.03;2.72;;;30.00;67.50;;;;;;5016071;28;20189;-85
2023/09/07 11:02:16;;;;;;;2.90;2.70;;;29.90;67.80;;;;;;5014660;28;20202;-92
2023/09/07 11:04:45;;;;;;;3.10;2.80;;;29.80;68.30;;;;;;5028703;28;20215;-87
2023/09/07 11:07:16;;;;;;;3.65;2.78;;;29.80;68.80;;;;;;5029547;28;20161;-87
2023/09/07 11:09:42;;;;;;;3.38;2.95;;;29.70;69.10;;;;;;5031046;28;20181;-88
2023/09/07 11:12:21;;;;;;;2.70;2.47;;;29.70;69.60;;;;;;5010086;28;20525;-87
2023/09/07 11:14:52;;;;;;;3.30;2.90;;;29.70;69.90;;;;;;5008073;28;20538;-88
2023/09/07 11:17:20;;;;;;;3.13;2.88;;;29.70;70.20;;;;;;5016265;28;20216;-88
2023/09/07 11:19:52;;;;;;;3.05;2.75;;;29.60;70.40;;;;;;5026594;28;20176;-87
2023/09/07 11:22:19;;;;;;;3.28;2.67;;;29.60;70.80;;;;;;5029093;28;20200;-87
2023/09/07 11:24:48;;;;;;;3.30;3.00;;;29.60;71.80;;;;;;5015580;28;20308;-88
2023/09/07 11:27:17;;;;;;;2.80;2.60;;;29.50;71.50;;;;;;5006562;28;20435;-87
2023/09/07 11:29:55;;;;;;;2.72;2.53;;;29.50;71.80;;;;;;5006949;28;20173;-87
2023/09/07 11:32:27;;;;;;;2.80;2.50;;;29.50;72.20;;;;;;5024792;28;20216;-87
2023/09/07 11:34:58;;;;;;;3.05;2.75;;;29.50;72.50;;;;;;5025102;28;20221;-87
2023/09/07 11:37:26;;;;;;;2.70;2.50;;;29.40;72.60;;;;;;5022135;28;20173;-87
2023/09/07 11:39:54;;;;;;;3.72;2.80;;;29.40;73.00;;;;;;5007217;28;20260;-86
2023/09/07 11:42:23;;;;;;;3.25;2.70;;;29.40;73.20;;;;;;5008362;28;20551;-86
2023/09/07 11:44:49;;;;;;;2.70;2.50;;;29.40;73.50;;;;;;5008261;28;20710;-86
2023/09/07 11:47:14;;;;;;;2.70;2.50;;;29.40;73.90;;;;;;5012367;28;20284;-86
2023/09/07 11:49:44;;;;;;;2.50;2.30;;;29.40;74.10;;;;;;5025999;28;20173;-86
2023/09/07 11:52:13;;;;;;;2.75;2.55;;;29.40;74.30;;;;;;5023976;28;20467;-86
2023/09/07 11:54:41;;;;;;;3.00;2.80;;;29.30;74.60;;;;;;5014696;28;20689;-86
2023/09/07 11:57:10;;;;;;;2.70;2.50;;;29.30;74.90;;;;;;5029664;28;20196;-87
2023/09/07 11:59:38;;;;;;;2.80;2.60;;;29.30;75.10;;;;;;5029790;28;20215;-86
2023/09/07 12:02:10;;;;;;;2.80;2.60;;;29.30;76.00;;;;;;5031208;28;20184;-87
2023/09/07 12:04:39;;;;;;;3.00;2.75;;;29.30;75.60;;;;;;5031428;28;20201;-87
2023/09/07 12:07:08;;;;;;;2.83;2.63;;;29.30;75.70;;;;;;5028877;28;20202;-87
2023/09/07 12:09:33;;;;;;;2.70;2.50;;;29.30;75.90;;;;;;5029987;28;20702;-87
2023/09/07 12:12:05;;;;;;;3.55;2.65;;;29.30;76.10;;;;;;5027339;28;20547;-87
2023/09/07 12:14:34;;;;;;;3.20;2.90;;;29.30;76.20;;;;;;5029845;28;20165;-87
2023/09/07 12:17:03;;;;;;;2.90;2.70;;;29.30;76.60;;;;;;5026132;28;20678;-88
2023/09/07 12:19:29;;;;;;;2.80;2.60;;;29.30;76.80;;;;;;5031115;28;20235;-88
2023/09/07 12:21:55;;;;;;;3.22;2.60;;;29.20;77.10;;;;;;5030690;28;20203;-88
2023/09/07 12:24:21;;;;;;;2.72;2.53;;;29.30;77.20;;;;;;5033007;28;20216;-88
2023/09/07 12:26:49;;;;;;;2.75;2.55;;;29.30;77.40;;;;;;5032170;28;20165;-88
2023/09/07 12:29:20;;;;;;;3.00;2.67;;;29.20;77.60;;;;;;5032486;28;20177;-89
2023/09/07 12:31:49;;;;;;;3.10;2.80;;;29.20;77.80;;;;;;5030778;28;20165;-89
2023/09/07 12:34:17;;;;;;;3.03;2.72;;;29.20;78.10;;;;;;5031013;28;20226;-89
2023/09/07 12:36:45;;;;;;;3.20;2.90;;;29.20;78.20;;;;;;5029619;28;20242;-88
2023/09/07 12:39:14;;;;;;;3.00;2.80;;;29.20;78.40;;;;;;5032503;28;20169;-88
2023/09/07 12:41:43;;;;;;;3.35;2.90;;;29.20;78.20;;;;;;5031328;28;20169;-89
2023/09/07 12:44:29;;;;;;;2.58;2.38;;;29.20;78.00;;;;;;5028574;28;20204;-88
2023/09/07 12:46:58;;;;;;;3.00;2.80;;;29.20;78.80;;;;;;5031841;28;20177;-89
2023/09/07 12:49:41;;;;;;;3.22;2.92;;;29.20;78.30;;;;;;5031388;28;20541;-89
2023/09/07 12:52:09;;;;;;;3.05;2.80;;;29.10;78.30;;;;;;5030267;28;20491;-89
2023/09/07 12:55:13;;;;;;;3.65;2.70;;;29.20;78.30;;;;;;5029159;28;20268;-89
2023/09/07 12:57:40;;;;;;;2.95;2.75;;;29.20;78.30;;;;;;5032747;28;20226;-87
2023/09/07 13:00:31;;;;;;;2.85;2.58;;;29.20;78.20;;;;;;5033772;28;20177;-87